Página principal
METAR-TAF:

METAR-TAF

Aeroportos :

Chita, Rússia

latitude: 52-05N, longitude: 113-29E, altura: 685 m

Observação actual do tempo

O boletim foi feito há 44 minutos, às 10:00 UTC
Vento 4 kt de sul
Temperatura 24°C
Humidade 65%
Pressão 1003 hPa
Visibilidade 10 km ou mais
Nuvens dispersasa uma altura de 4000 ft, Cumulonimbus.

METAR: UIAA 201000Z 18002MPS 9999 SCT040CB 24/17 Q1003 R29/70D NOSIG RMK QFE694/0926

Hora: 19:44 (10:44 UTC)

Previsão

O boletim foi feito há 2 horas e 44 minutos, às 08:00 UTC
Previsão válida de 20 às 09 UTC a 21 às 09 UTC
Vento 6 kt de sudeste com rajadas de 16 kt
Visibilidade 10 km ou mais
Nuvens dispersasa uma altura de 4000 ft, Cumulonimbus.
Temporariamente
de 20 às 18 UTC a 21 às 09 UTC
Visibilidade: 3100 m
Nuvens fragmentadasa uma altura de 1400 ft, Cumulonimbus.
aguaceiros fracos de chuva

TAF: UIAA 200800Z 2009/2109 14003G08MPS 9999 SCT040CB TEMPO 2018/2109 3100 -SHRA BKN014CB

Observações e previsões do tempo de mais de 4000 aeroportos (mensagens METAR e TAF).

As estações disponíveis são os pontos amarelos e vermelhos sobre o mapa.

Mova o rato sobre o mapa para ver o nome da estação.

Depois clique no ponto para visualizar as observações e previsões meteorológicas.

Para alterar o mapa : clique nos botões verdes com uma cruz preta para aumentar o zoom; no botão verde com uma pitada de zoom; ou nas setas verdes para mapas adjacentes.


METAR-TAF: